createdAt,value
2022-10-08T00:01:39.285Z,101210.72
2022-10-08T00:04:11.866Z,101211.28
2022-10-08T00:06:40.844Z,101210.00
2022-10-08T00:09:09.805Z,101205.97
2022-10-08T00:11:40.850Z,101207.38
2022-10-08T00:14:10.695Z,101202.09
2022-10-08T00:16:41.065Z,101196.78
2022-10-08T00:19:13.954Z,101195.72
2022-10-08T00:21:44.750Z,101184.91
2022-10-08T00:24:15.631Z,101186.53
2022-10-08T00:26:45.020Z,101179.19
2022-10-08T00:29:16.264Z,101189.13
2022-10-08T00:31:48.132Z,101178.91
2022-10-08T00:34:21.107Z,101171.56
2022-10-08T00:36:52.954Z,101167.75
2022-10-08T00:39:24.058Z,101166.47
2022-10-08T00:41:54.850Z,101167.06
2022-10-08T00:44:52.433Z,101160.06
2022-10-08T00:47:26.834Z,101159.75
2022-10-08T00:50:01.604Z,101158.53
2022-10-08T00:52:35.872Z,101154.06
2022-10-08T00:55:08.583Z,101149.91
2022-10-08T00:57:39.043Z,101152.34
2022-10-08T01:00:11.041Z,101151.25
2022-10-08T01:02:40.015Z,101150.19
2022-10-08T01:05:12.419Z,101143.28
2022-10-08T01:07:49.981Z,101129.00
2022-10-08T01:10:27.655Z,101143.78
2022-10-08T01:13:14.834Z,101132.44
2022-10-08T01:15:54.015Z,101127.97
2022-10-08T01:18:30.569Z,101124.19
2022-10-08T01:21:10.013Z,101122.38
2022-10-08T01:23:59.594Z,101121.97
2022-10-08T01:26:45.871Z,101119.84
2022-10-08T01:29:22.929Z,101109.78
2022-10-08T01:31:55.069Z,101114.97
2022-10-08T01:34:32.032Z,101116.94
2022-10-08T01:37:04.164Z,101121.88
2022-10-08T01:39:37.028Z,101122.34
2022-10-08T01:42:09.433Z,101107.28
2022-10-08T01:44:46.358Z,101112.91
2022-10-08T01:47:19.295Z,101111.94
2022-10-08T01:49:53.014Z,101098.44
2022-10-08T01:52:26.719Z,101091.41
2022-10-08T01:54:59.363Z,101108.63
2022-10-08T01:57:30.202Z,101082.00
2022-10-08T02:00:06.284Z,101103.44
2022-10-08T02:02:42.217Z,101102.16
2022-10-08T02:05:12.311Z,101102.16
2022-10-08T02:07:43.273Z,101099.72
2022-10-08T02:10:15.231Z,101086.41
2022-10-08T02:12:45.567Z,101094.78
2022-10-08T02:15:19.987Z,101094.22
2022-10-08T02:17:57.166Z,101102.78
2022-10-08T02:20:33.560Z,101099.91
2022-10-08T02:23:09.059Z,101101.13
2022-10-08T02:25:42.221Z,101102.34
2022-10-08T02:28:19.040Z,101096.25
2022-10-08T02:30:53.110Z,101100.94
2022-10-08T02:33:27.606Z,101095.28
2022-10-08T02:36:00.352Z,101107.63
2022-10-08T02:38:34.190Z,101098.91
2022-10-08T02:41:06.355Z,101098.69
2022-10-08T02:43:39.988Z,101107.41
2022-10-08T02:46:17.286Z,101093.94
2022-10-08T02:48:51.018Z,101099.47
2022-10-08T02:51:21.128Z,101098.44
2022-10-08T02:53:50.231Z,101102.09
2022-10-08T02:56:25.394Z,101093.63
2022-10-08T02:58:55.816Z,101098.81
2022-10-08T03:01:34.900Z,101102.72
2022-10-08T03:04:09.824Z,101109.00
2022-10-08T03:06:39.295Z,101103.03
2022-10-08T03:09:11.458Z,101105.56
2022-10-08T03:11:40.788Z,101098.38
2022-10-08T03:14:14.663Z,101101.97
2022-10-08T03:16:47.471Z,101105.44
2022-10-08T03:19:18.278Z,101102.81
2022-10-08T03:21:50.494Z,101105.66
2022-10-08T03:24:19.418Z,101103.88
2022-10-08T03:26:48.395Z,101118.31
2022-10-08T03:29:17.319Z,101114.13
2022-10-08T03:31:48.984Z,101108.75
2022-10-08T03:34:18.216Z,101111.00
2022-10-08T03:36:47.233Z,101109.31
2022-10-08T03:39:16.125Z,101107.41
2022-10-08T03:41:45.072Z,101110.88
2022-10-08T03:44:14.016Z,101109.59
2022-10-08T03:46:42.926Z,101111.13
2022-10-08T03:49:13.217Z,101104.44
2022-10-08T03:51:42.161Z,101099.91
2022-10-08T03:54:11.215Z,101104.34
2022-10-08T03:56:40.369Z,101101.72
2022-10-08T03:59:09.430Z,101102.66
2022-10-08T04:01:38.762Z,101110.53
2022-10-08T04:04:07.748Z,101095.88
2022-10-08T04:06:38.000Z,101099.56
2022-10-08T04:09:06.918Z,101095.31
2022-10-08T04:11:35.826Z,101092.69
2022-10-08T04:14:04.764Z,101104.41
2022-10-08T04:16:33.817Z,101092.91
2022-10-08T04:19:02.757Z,101100.94
2022-10-08T04:21:32.511Z,101111.56
2022-10-08T04:24:03.145Z,101115.97
2022-10-08T04:26:32.101Z,101106.56
2022-10-08T04:29:01.539Z,101112.53
2022-10-08T04:31:30.567Z,101109.56
2022-10-08T04:33:59.505Z,101107.56
2022-10-08T04:36:28.424Z,101097.03
2022-10-08T04:38:57.392Z,101103.34
2022-10-08T04:41:28.012Z,101105.97
2022-10-08T04:44:01.047Z,101105.28
2022-10-08T04:46:30.285Z,101104.06
2022-10-08T04:49:00.109Z,101118.13
2022-10-08T04:51:29.263Z,101121.44
2022-10-08T04:53:58.685Z,101115.00
2022-10-08T04:56:31.009Z,101116.59
2022-10-08T04:59:00.480Z,101117.81
2022-10-08T05:01:30.877Z,101111.25
2022-10-08T05:04:01.073Z,101108.75
2022-10-08T05:06:32.151Z,101124.63
2022-10-08T05:09:03.035Z,101126.75
2022-10-08T05:11:34.087Z,101109.59
2022-10-08T05:14:03.238Z,101112.00
2022-10-08T05:16:32.493Z,101116.66
2022-10-08T05:19:01.400Z,101115.44
2022-10-08T05:21:32.777Z,101119.88
2022-10-08T05:24:03.528Z,101116.81
2022-10-08T05:26:56.897Z,101111.56
2022-10-08T05:29:25.193Z,101114.13
2022-10-08T05:31:54.109Z,101118.06
2022-10-08T05:34:23.332Z,101122.97
2022-10-08T05:36:52.295Z,101142.53
2022-10-08T05:39:21.247Z,101143.47
2022-10-08T05:41:51.721Z,101148.97
2022-10-08T05:44:20.724Z,101152.69
2022-10-08T05:46:49.666Z,101152.91
2022-10-08T05:49:21.500Z,101147.88
2022-10-08T05:51:51.041Z,101162.59
2022-10-08T05:54:20.790Z,101163.28
2022-10-08T05:56:51.448Z,101157.47
2022-10-08T05:59:22.639Z,101160.41
2022-10-08T06:01:52.155Z,101167.59
2022-10-08T06:04:21.150Z,101188.34
2022-10-08T06:06:50.154Z,101180.50
2022-10-08T06:09:21.549Z,101170.00
2022-10-08T06:11:52.349Z,101183.81
2022-10-08T06:14:21.285Z,101186.56
2022-10-08T06:16:50.363Z,101188.72
2022-10-08T06:19:19.482Z,101197.75
2022-10-08T06:21:48.399Z,101187.63
2022-10-08T06:24:17.332Z,101202.31
2022-10-08T06:26:46.271Z,101206.97
2022-10-08T06:29:18.614Z,101210.28
2022-10-08T06:31:47.796Z,101203.38
2022-10-08T06:34:16.974Z,101215.19
2022-10-08T06:36:45.894Z,101212.56
2022-10-08T06:39:16.400Z,101215.06
2022-10-08T06:41:45.367Z,101215.44
2022-10-08T06:44:19.009Z,101218.16
2022-10-08T06:46:48.065Z,101219.56
2022-10-08T06:49:18.231Z,101225.28
2022-10-08T06:51:47.158Z,101222.41
2022-10-08T06:54:16.185Z,101229.56
2022-10-08T06:56:45.048Z,101224.56
2022-10-08T06:59:14.057Z,101221.44
2022-10-08T07:01:44.496Z,101226.22
2022-10-08T07:04:13.522Z,101224.31
2022-10-08T07:06:42.506Z,101228.97
2022-10-08T07:09:13.272Z,101231.53
2022-10-08T07:11:42.180Z,101236.91
2022-10-08T07:14:11.112Z,101236.03
2022-10-08T07:16:40.102Z,101236.50
2022-10-08T07:19:10.662Z,101244.00
2022-10-08T07:21:40.462Z,101251.63
2022-10-08T07:24:09.490Z,101262.19
2022-10-08T07:26:38.484Z,101261.97
2022-10-08T07:29:09.734Z,101254.03
2022-10-08T07:31:39.829Z,101261.41
2022-10-08T07:34:12.868Z,101261.41
2022-10-08T07:36:42.468Z,101255.63
2022-10-08T07:39:14.487Z,101270.19
2022-10-08T07:41:43.677Z,101268.69
2022-10-08T07:44:13.553Z,101269.16
2022-10-08T07:46:45.670Z,101264.34
2022-10-08T07:49:17.172Z,101270.69
2022-10-08T07:51:46.834Z,101269.06
2022-10-08T07:54:18.118Z,101271.31
2022-10-08T07:56:47.276Z,101281.75
2022-10-08T07:59:16.392Z,101278.38
2022-10-08T08:01:45.908Z,101287.13
2022-10-08T08:04:16.286Z,101290.75
2022-10-08T08:06:47.649Z,101292.34
2022-10-08T08:09:18.128Z,101292.06
2022-10-08T08:11:48.229Z,101295.75
2022-10-08T08:14:17.246Z,101298.19
2022-10-08T08:16:46.280Z,101304.16
2022-10-08T08:19:16.559Z,101305.38
2022-10-08T08:21:45.491Z,101310.44
2022-10-08T08:24:16.517Z,101316.38
2022-10-08T08:26:45.723Z,101311.84
2022-10-08T08:29:16.626Z,101303.78
2022-10-08T08:31:47.173Z,101323.06
2022-10-08T08:34:22.692Z,101325.16
2022-10-08T08:36:54.505Z,101326.41
2022-10-08T08:39:25.346Z,101332.94
2022-10-08T08:42:05.935Z,101330.72
2022-10-08T08:44:38.849Z,101339.50
2022-10-08T08:47:14.738Z,101330.19
2022-10-08T08:49:48.309Z,101339.78
2022-10-08T08:52:20.320Z,101353.91
2022-10-08T08:54:50.066Z,101346.97
2022-10-08T08:57:34.119Z,101346.13
2022-10-08T09:00:07.034Z,101347.28
2022-10-08T09:02:41.505Z,101342.53
2022-10-08T09:05:16.795Z,101345.03
2022-10-08T09:07:50.075Z,101350.31
2022-10-08T09:10:23.531Z,101355.84
2022-10-08T09:12:54.766Z,101349.06
2022-10-08T09:15:30.694Z,101367.59
2022-10-08T09:18:03.860Z,101367.81
2022-10-08T09:20:39.997Z,101383.09
2022-10-08T09:23:14.942Z,101384.31
2022-10-08T09:25:48.326Z,101379.34
2022-10-08T09:28:39.706Z,101383.06
2022-10-08T09:31:25.804Z,101379.47
2022-10-08T09:34:01.009Z,101380.84
2022-10-08T09:36:45.111Z,101375.41
2022-10-08T09:39:20.013Z,101377.63
2022-10-08T09:42:09.824Z,101369.97
2022-10-08T09:44:42.863Z,101375.63
2022-10-08T09:47:14.757Z,101378.88
2022-10-08T09:49:45.008Z,101382.38
2022-10-08T09:52:20.557Z,101377.53
2022-10-08T09:54:53.011Z,101397.38
2022-10-08T09:57:23.204Z,101393.69
2022-10-08T09:59:54.674Z,101405.75
2022-10-08T10:02:30.809Z,101400.16
2022-10-08T10:05:00.808Z,101392.63
2022-10-08T10:07:42.495Z,101391.69
2022-10-08T10:10:18.256Z,101399.63
2022-10-08T10:12:52.191Z,101406.34
2022-10-08T10:15:25.115Z,101393.34
2022-10-08T10:17:56.611Z,101401.28
2022-10-08T10:20:29.859Z,101407.03
2022-10-08T10:23:06.373Z,101402.19
2022-10-08T10:25:38.609Z,101410.25
2022-10-08T10:28:12.724Z,101405.91
2022-10-08T10:30:52.569Z,101411.13
2022-10-08T10:33:26.631Z,101403.50
2022-10-08T10:36:00.347Z,101407.22
2022-10-08T10:38:32.341Z,101409.28
2022-10-08T10:41:12.757Z,101406.31
2022-10-08T10:43:48.117Z,101394.59
2022-10-08T10:46:26.253Z,101408.72
2022-10-08T10:48:55.702Z,101405.00
2022-10-08T10:51:41.411Z,101410.34
2022-10-08T10:54:32.275Z,101418.56
2022-10-08T10:57:05.912Z,101431.84
2022-10-08T10:59:47.281Z,101422.09
2022-10-08T11:02:26.762Z,101421.44
2022-10-08T11:05:04.176Z,101431.41
2022-10-08T11:08:03.452Z,101438.63
2022-10-08T11:10:52.733Z,101430.88
2022-10-08T11:13:34.666Z,101443.06
2022-10-08T11:16:15.696Z,101436.69
2022-10-08T11:18:52.232Z,101430.19
2022-10-08T11:21:40.029Z,101441.00
2022-10-08T11:24:34.832Z,101437.91
2022-10-08T11:27:15.672Z,101456.38
2022-10-08T11:29:52.073Z,101463.59
2022-10-08T11:32:21.662Z,101459.03
2022-10-08T11:34:54.424Z,101481.63
2022-10-08T11:37:27.889Z,101485.53
2022-10-08T11:40:05.393Z,101484.38
2022-10-08T11:42:48.078Z,101473.22
2022-10-08T11:45:32.083Z,101459.50
2022-10-08T11:48:05.333Z,101439.13
2022-10-08T11:50:38.489Z,101451.88
2022-10-08T11:53:18.772Z,101458.28
2022-10-08T11:55:55.078Z,101467.50
2022-10-08T11:58:29.235Z,101473.53
2022-10-08T12:01:05.885Z,101473.53
2022-10-08T12:03:37.211Z,101477.84
2022-10-08T12:06:18.567Z,101478.22
2022-10-08T12:08:53.581Z,101475.69
2022-10-08T12:11:51.983Z,101486.19
2022-10-08T12:14:48.601Z,101479.28
2022-10-08T12:17:18.330Z,101484.34
2022-10-08T12:20:21.872Z,101481.44
2022-10-08T12:23:06.292Z,101473.63
2022-10-08T12:25:44.209Z,101483.38
2022-10-08T12:28:50.256Z,101475.69
2022-10-08T12:31:27.757Z,101484.44
2022-10-08T12:33:59.725Z,101481.97
2022-10-08T12:36:37.653Z,101483.50
2022-10-08T12:39:12.556Z,101485.81
2022-10-08T12:41:49.106Z,101473.47
2022-10-08T12:44:30.890Z,101478.84
2022-10-08T12:47:10.381Z,101476.78
2022-10-08T12:49:45.975Z,101473.94
2022-10-08T12:52:16.524Z,101480.38
2022-10-08T12:54:49.947Z,101478.47
2022-10-08T12:57:23.705Z,101482.09
2022-10-08T12:59:53.427Z,101472.31
2022-10-08T13:02:38.114Z,101480.06
2022-10-08T13:05:23.807Z,101478.66
2022-10-08T13:07:54.410Z,101482.72
2022-10-08T13:10:25.247Z,101470.84
2022-10-08T13:13:01.298Z,101475.31
2022-10-08T13:15:31.032Z,101474.19
2022-10-08T13:18:01.981Z,101488.31
2022-10-08T13:20:31.091Z,101483.19
2022-10-08T13:23:05.064Z,101478.41
2022-10-08T13:25:37.995Z,101485.34
2022-10-08T13:28:12.491Z,101500.19
2022-10-08T13:30:41.690Z,101510.75
2022-10-08T13:33:17.893Z,101515.59
2022-10-08T13:35:54.813Z,101508.59
2022-10-08T13:38:26.258Z,101514.50
2022-10-08T13:40:58.733Z,101515.72
2022-10-08T13:43:28.128Z,101530.16
2022-10-08T13:45:57.805Z,101526.03
2022-10-08T13:48:28.075Z,101532.63
2022-10-08T13:50:57.518Z,101527.31
2022-10-08T13:53:27.942Z,101526.06
2022-10-08T13:55:56.902Z,101521.31
2022-10-08T13:58:25.808Z,101519.19
2022-10-08T14:00:54.999Z,101530.81
2022-10-08T14:03:24.127Z,101524.81
2022-10-08T14:05:54.485Z,101543.59
2022-10-08T14:08:27.135Z,101542.72
2022-10-08T14:10:57.992Z,101547.47
2022-10-08T14:13:29.253Z,101539.50
2022-10-08T14:15:58.367Z,101544.59
2022-10-08T14:18:27.359Z,101550.31
2022-10-08T14:20:57.827Z,101543.69
2022-10-08T14:23:26.759Z,101546.63
2022-10-08T14:25:55.682Z,101553.69
2022-10-08T14:28:24.995Z,101553.44
2022-10-08T14:30:54.029Z,101546.22
2022-10-08T14:33:22.985Z,101566.16
2022-10-08T14:35:53.490Z,101561.50
2022-10-08T14:38:24.584Z,101555.94
2022-10-08T14:40:53.554Z,101570.38
2022-10-08T14:43:25.653Z,101562.59
2022-10-08T14:45:56.634Z,101578.16
2022-10-08T14:48:25.650Z,101581.81
2022-10-08T14:50:57.352Z,101584.88
2022-10-08T14:53:27.773Z,101590.00
2022-10-08T14:56:11.660Z,101597.41
2022-10-08T14:58:41.322Z,101593.13
2022-10-08T15:01:10.611Z,101601.41
2022-10-08T15:03:39.619Z,101614.25
2022-10-08T15:06:08.896Z,101607.44
2022-10-08T15:08:40.312Z,101615.09
2022-10-08T15:11:09.426Z,101616.44
2022-10-08T15:13:38.394Z,101614.16
2022-10-08T15:16:12.193Z,101619.06
2022-10-08T15:18:41.201Z,101618.72
2022-10-08T15:21:10.910Z,101622.53
2022-10-08T15:23:41.210Z,101623.16
2022-10-08T15:26:14.744Z,101628.06
2022-10-08T15:28:45.940Z,101629.31
2022-10-08T15:31:17.492Z,101637.66
2022-10-08T15:33:48.126Z,101642.19
2022-10-08T15:36:21.324Z,101644.81
2022-10-08T15:38:59.338Z,101643.13
2022-10-08T15:41:29.459Z,101649.66
2022-10-08T15:44:07.256Z,101656.69
2022-10-08T15:46:36.741Z,101658.84
2022-10-08T15:49:06.830Z,101674.50
2022-10-08T15:51:35.753Z,101666.25
2022-10-08T15:54:06.307Z,101668.88
2022-10-08T15:56:35.808Z,101685.63
2022-10-08T15:59:05.934Z,101692.00
2022-10-08T16:01:34.977Z,101691.41
2022-10-08T16:04:04.010Z,101682.72
2022-10-08T16:06:35.993Z,101697.69
2022-10-08T16:09:06.792Z,101699.22
2022-10-08T16:11:36.572Z,101702.41
2022-10-08T16:14:08.462Z,101703.19
2022-10-08T16:16:38.360Z,101706.22
2022-10-08T16:19:09.091Z,101721.19
2022-10-08T16:21:39.038Z,101715.72
2022-10-08T16:24:09.906Z,101730.25
2022-10-08T16:26:39.884Z,101736.53
2022-10-08T16:29:10.837Z,101737.97
2022-10-08T16:31:41.009Z,101748.84
2022-10-08T16:34:14.106Z,101748.94
2022-10-08T16:36:43.232Z,101762.38
2022-10-08T16:39:17.746Z,101756.81
2022-10-08T16:41:47.769Z,101763.56
2022-10-08T16:44:18.880Z,101774.75
2022-10-08T16:46:50.422Z,101782.00
2022-10-08T16:49:24.631Z,101792.06
2022-10-08T16:51:55.773Z,101794.03
2022-10-08T16:54:26.249Z,101792.91
2022-10-08T16:56:55.311Z,101802.06
2022-10-08T16:59:25.874Z,101805.38
2022-10-08T17:01:57.464Z,101799.72
2022-10-08T17:04:28.677Z,101812.31
2022-10-08T17:06:57.619Z,101813.38
2022-10-08T17:09:27.926Z,101815.16
2022-10-08T17:11:57.007Z,101811.91
2022-10-08T17:14:25.935Z,101810.69
2022-10-08T17:16:54.995Z,101815.06
2022-10-08T17:19:23.955Z,101812.13
2022-10-08T17:21:52.952Z,101824.78
2022-10-08T17:24:22.081Z,101831.69
2022-10-08T17:26:52.337Z,101832.69
2022-10-08T17:29:21.298Z,101835.22
2022-10-08T17:31:50.243Z,101833.84
2022-10-08T17:34:19.245Z,101843.31
2022-10-08T17:36:48.201Z,101835.97
2022-10-08T17:39:21.000Z,101847.84
2022-10-08T17:41:51.312Z,101843.66
2022-10-08T17:44:20.587Z,101860.72
2022-10-08T17:46:49.940Z,101856.19
2022-10-08T17:49:20.498Z,101865.13
2022-10-08T17:51:50.998Z,101864.34
2022-10-08T17:54:21.163Z,101868.94
2022-10-08T17:56:51.830Z,101874.44
2022-10-08T17:59:22.825Z,101876.00
2022-10-08T18:01:52.157Z,101864.47
2022-10-08T18:04:21.412Z,101878.69
2022-10-08T18:06:50.548Z,101882.03
2022-10-08T18:09:21.367Z,101886.28
2022-10-08T18:11:53.475Z,101894.22
2022-10-08T18:14:24.222Z,101899.09
2022-10-08T18:16:53.147Z,101902.16
2022-10-08T18:19:22.109Z,101904.53
2022-10-08T18:21:51.277Z,101902.84
2022-10-08T18:24:20.624Z,101914.38
2022-10-08T18:26:53.334Z,101906.97
2022-10-08T18:29:22.512Z,101908.56
2022-10-08T18:31:51.454Z,101910.16
2022-10-08T18:34:20.757Z,101912.41
2022-10-08T18:36:49.669Z,101915.44
2022-10-08T18:39:24.811Z,101917.84
2022-10-08T18:42:13.572Z,101919.16
2022-10-08T18:44:43.167Z,101928.69
2022-10-08T18:47:12.532Z,101930.75
2022-10-08T18:49:41.710Z,101931.59
2022-10-08T18:52:10.764Z,101941.94
2022-10-08T18:54:39.732Z,101949.06
2022-10-08T18:57:10.170Z,101946.06
2022-10-08T18:59:39.789Z,101951.38
2022-10-08T19:02:10.239Z,101949.97
2022-10-08T19:04:39.455Z,101955.97
2022-10-08T19:07:11.253Z,101959.41
2022-10-08T19:09:40.667Z,101961.31
2022-10-08T19:12:11.050Z,101967.00
2022-10-08T19:14:39.980Z,101977.78
2022-10-08T19:17:09.240Z,101970.56
2022-10-08T19:19:38.484Z,101973.00
2022-10-08T19:22:07.535Z,101976.66
2022-10-08T19:24:40.862Z,101976.25
2022-10-08T19:27:11.706Z,101979.19
2022-10-08T19:29:40.876Z,101982.25
2022-10-08T19:32:09.823Z,101985.06
2022-10-08T19:34:38.983Z,101992.63
2022-10-08T19:37:07.982Z,101991.31
2022-10-08T19:39:41.711Z,101992.06
2022-10-08T19:42:14.592Z,101999.75
2022-10-08T19:44:46.237Z,102008.41
2022-10-08T19:47:15.629Z,102005.72
2022-10-08T19:49:48.719Z,102012.97
2022-10-08T19:52:30.912Z,102010.56
2022-10-08T19:54:59.957Z,102012.97
2022-10-08T19:57:32.196Z,102019.41
2022-10-08T20:00:01.717Z,102022.31
2022-10-08T20:02:33.367Z,102025.19
2022-10-08T20:05:02.951Z,102034.81
2022-10-08T20:07:31.864Z,102022.03
2022-10-08T20:10:01.677Z,102032.94
2022-10-08T20:12:32.126Z,102034.59
2022-10-08T20:15:01.173Z,102040.09
2022-10-08T20:17:30.124Z,102044.94
2022-10-08T20:20:15.229Z,102043.88
2022-10-08T20:22:48.154Z,102046.75
2022-10-08T20:25:20.244Z,102054.09
2022-10-08T20:27:51.640Z,102048.63
2022-10-08T20:30:21.553Z,102045.91
2022-10-08T20:32:51.072Z,102046.69
2022-10-08T20:35:20.731Z,102051.50
2022-10-08T20:37:49.763Z,102053.94
2022-10-08T20:40:18.899Z,102052.78
2022-10-08T20:42:51.566Z,102059.94
2022-10-08T20:45:20.569Z,102061.03
2022-10-08T20:47:49.449Z,102066.69
2022-10-08T20:50:18.455Z,102062.31
2022-10-08T20:52:50.047Z,102068.03
2022-10-08T20:55:19.582Z,102068.53
2022-10-08T20:57:48.653Z,102075.94
2022-10-08T21:00:20.033Z,102073.44
2022-10-08T21:02:52.691Z,102082.09
2022-10-08T21:05:21.792Z,102080.75
2022-10-08T21:08:00.080Z,102075.72
2022-10-08T21:10:37.680Z,102089.81
2022-10-08T21:13:06.633Z,102089.63
2022-10-08T21:15:36.884Z,102094.94
2022-10-08T21:18:06.152Z,102088.28
2022-10-08T21:20:39.672Z,102094.06
2022-10-08T21:23:08.789Z,102101.31
2022-10-08T21:25:37.721Z,102099.44
2022-10-08T21:28:06.880Z,102105.69
2022-10-08T21:30:37.367Z,102113.97
2022-10-08T21:33:06.342Z,102119.44
2022-10-08T21:35:37.818Z,102115.22
2022-10-08T21:38:08.065Z,102108.91
2022-10-08T21:40:37.513Z,102112.63
2022-10-08T21:43:06.578Z,102106.63
2022-10-08T21:45:36.894Z,102109.41
2022-10-08T21:48:05.919Z,102111.84
2022-10-08T21:50:36.230Z,102110.13
2022-10-08T21:53:05.504Z,102117.66
2022-10-08T21:55:34.571Z,102112.28
2022-10-08T21:58:03.543Z,102111.41
2022-10-08T22:00:34.720Z,102119.00
2022-10-08T22:03:05.400Z,102121.63
2022-10-08T22:05:34.377Z,102124.66
2022-10-08T22:08:03.323Z,102126.50
2022-10-08T22:10:32.262Z,102122.69
2022-10-08T22:13:01.163Z,102119.09
2022-10-08T22:15:30.185Z,102129.53
2022-10-08T22:17:59.185Z,102130.50
2022-10-08T22:20:29.883Z,102129.69
2022-10-08T22:22:58.782Z,102129.19
2022-10-08T22:25:27.698Z,102128.66
2022-10-08T22:27:56.841Z,102135.78
2022-10-08T22:30:26.114Z,102137.59
2022-10-08T22:32:55.122Z,102139.91
2022-10-08T22:35:24.034Z,102136.78
2022-10-08T22:37:54.307Z,102137.31
2022-10-08T22:40:23.225Z,102139.50
2022-10-08T22:42:52.218Z,102135.97
2022-10-08T22:45:21.216Z,102148.50
2022-10-08T22:47:50.167Z,102146.66
2022-10-08T22:50:19.772Z,102149.75
2022-10-08T22:52:50.654Z,102152.59
2022-10-08T22:55:21.621Z,102156.38
2022-10-08T22:57:50.543Z,102162.38
2022-10-08T23:00:19.547Z,102160.56
2022-10-08T23:02:48.772Z,102164.53
2022-10-08T23:05:18.169Z,102167.34
2022-10-08T23:07:47.100Z,102166.56
2022-10-08T23:10:16.326Z,102169.81
2022-10-08T23:12:46.904Z,102171.91
2022-10-08T23:15:16.238Z,102176.31
2022-10-08T23:17:45.171Z,102169.56
2022-10-08T23:20:14.083Z,102165.19
2022-10-08T23:22:42.991Z,102167.97
2022-10-08T23:25:11.953Z,102171.72
2022-10-08T23:27:40.882Z,102177.56
2022-10-08T23:30:31.377Z,102174.41
2022-10-08T23:33:00.951Z,102178.09
2022-10-08T23:35:29.860Z,102180.84
2022-10-08T23:37:58.757Z,102179.88
2022-10-08T23:40:27.735Z,102180.78
2022-10-08T23:42:56.678Z,102184.41
2022-10-08T23:45:26.957Z,102179.28
2022-10-08T23:47:55.882Z,102179.16
2022-10-08T23:50:24.820Z,102173.78
2022-10-08T23:52:53.750Z,102177.63
2022-10-08T23:55:22.681Z,102178.47
2022-10-08T23:57:51.559Z,102183.75
